Accueil
METAR-TAF:

METAR-TAF

Aéroports :

Saint-Yan, France

Aéroport de Saint-Yan

latitude: 46-24-45N, longitude: 004-00-48E, altitude: 244 m

Observation

Le bulletin a été fait il y a 19 minutes, à 20:30 UTC
Vent 5 kt de ouest
Température 9°C
Humidité 76%
Pression 1024 hPa
Visibilité 10 km ou plus
pas de nuages en-dessous de 1500 mètres et pas de cumulonimbus.

METAR: LFLN 222030Z AUTO 28005KT CAVOK 09/05 Q1024 TEMPO 28018KT

Heure: 22:49 (20:49 UTC)

Prévision

Le bulletin a été fait il y a 3 heures et 49 minutes, à 17:00 UTC
Prévision valable du 22 à 18 UTC au 23 à 03 UTC
Vent 8 kt de ouest
Visibilité 10 km ou plus
Quelques nuages à une hauteur de 4000 ft
Nuages épars à une hauteur de 5000 ft
Nuages fragmentés à une hauteur de 8500 ft
Probabilité 30%
du 22 à 18 UTC au 22 à 22 UTC
Vent 18 kt de ouest
faibles averses de pluie

TAF: LFLN 221700Z 2218/2303 27008KT 9999 FEW040 SCT050 BKN085 PROB30 2218/2222 28018KT -SHRA

Observations et prévisions météorologiques de plus de 4000 aéroports (messages METAR et TAF).

Les stations disponibles sont représentées par des disques jaunes et rouges sur la carte.

Passer la souris dessus pour voir le nom de la station.

Cliquer dessus pour voir les observations et prévisions météorologiques.

Pour changer de carte: cliquez sur les boutons verts avec une croix noire pour zoomer, sur le bouton vert avec un tiret pour effectuer un zoom arrière, ou sur les flèches vertes pour les cartes adjacentes.


METAR-TAF: